sensor_id;sensor_type;location;lat;lon;timestamp;P1;durP1;ratioP1;P2;durP2;ratioP2
40595;SDS011;26304;48.794;9.820;2022-07-26T00:02:01;5.00;;;2.13;;
40595;SDS011;26304;48.794;9.820;2022-07-26T00:07:44;2.38;;;2.17;;
40595;SDS011;26304;48.794;9.820;2022-07-26T00:13:27;3.47;;;1.95;;
40595;SDS011;26304;48.794;9.820;2022-07-26T00:19:11;5.35;;;2.00;;
40595;SDS011;26304;48.794;9.820;2022-07-26T00:24:53;3.28;;;1.65;;
40595;SDS011;26304;48.794;9.820;2022-07-26T00:30:36;2.45;;;1.50;;
40595;SDS011;26304;48.794;9.820;2022-07-26T00:36:20;2.88;;;2.08;;
40595;SDS011;26304;48.794;9.820;2022-07-26T00:42:03;2.22;;;1.52;;
40595;SDS011;26304;48.794;9.820;2022-07-26T00:47:45;1.80;;;1.58;;
40595;SDS011;26304;48.794;9.820;2022-07-26T00:53:29;2.40;;;1.70;;
40595;SDS011;26304;48.794;9.820;2022-07-26T00:59:11;1.77;;;1.50;;
40595;SDS011;26304;48.794;9.820;2022-07-26T01:04:54;2.22;;;2.03;;
40595;SDS011;26304;48.794;9.820;2022-07-26T01:10:38;1.88;;;1.73;;
40595;SDS011;26304;48.794;9.820;2022-07-26T01:16:20;2.50;;;2.30;;
40595;SDS011;26304;48.794;9.820;2022-07-26T01:22:05;2.10;;;1.90;;
40595;SDS011;26304;48.794;9.820;2022-07-26T01:27:47;2.13;;;1.92;;
40595;SDS011;26304;48.794;9.820;2022-07-26T01:33:30;2.92;;;1.75;;
40595;SDS011;26304;48.794;9.820;2022-07-26T01:39:14;2.35;;;1.83;;
40595;SDS011;26304;48.794;9.820;2022-07-26T01:44:57;4.25;;;1.88;;
40595;SDS011;26304;48.794;9.820;2022-07-26T01:50:39;2.67;;;1.85;;
40595;SDS011;26304;48.794;9.820;2022-07-26T01:56:23;2.90;;;2.00;;
40595;SDS011;26304;48.794;9.820;2022-07-26T02:02:05;1.92;;;1.73;;
40595;SDS011;26304;48.794;9.820;2022-07-26T02:07:48;4.05;;;2.03;;
40595;SDS011;26304;48.794;9.820;2022-07-26T02:13:33;3.03;;;2.08;;
40595;SDS011;26304;48.794;9.820;2022-07-26T02:19:17;3.80;;;3.58;;
40595;SDS011;26304;48.794;9.820;2022-07-26T02:24:59;2.75;;;2.55;;
40595;SDS011;26304;48.794;9.820;2022-07-26T02:30:44;1.95;;;1.52;;
40595;SDS011;26304;48.794;9.820;2022-07-26T02:36:27;1.77;;;1.48;;
40595;SDS011;26304;48.794;9.820;2022-07-26T02:42:09;2.25;;;2.15;;
40595;SDS011;26304;48.794;9.820;2022-07-26T02:47:54;2.33;;;1.80;;
40595;SDS011;26304;48.794;9.820;2022-07-26T02:53:36;2.45;;;1.63;;
40595;SDS011;26304;48.794;9.820;2022-07-26T02:59:19;2.33;;;1.58;;
40595;SDS011;26304;48.794;9.820;2022-07-26T03:05:03;2.13;;;1.92;;
40595;SDS011;26304;48.794;9.820;2022-07-26T03:10:46;1.65;;;1.55;;
40595;SDS011;26304;48.794;9.820;2022-07-26T03:16:28;1.65;;;1.55;;
40595;SDS011;26304;48.794;9.820;2022-07-26T03:22:12;1.85;;;1.75;;
40595;SDS011;26304;48.794;9.820;2022-07-26T03:27:55;1.70;;;1.60;;
40595;SDS011;26304;48.794;9.820;2022-07-26T03:33:37;4.25;;;1.58;;
40595;SDS011;26304;48.794;9.820;2022-07-26T03:39:21;1.80;;;1.70;;
40595;SDS011;26304;48.794;9.820;2022-07-26T03:45:05;3.00;;;1.70;;
40595;SDS011;26304;48.794;9.820;2022-07-26T03:50:49;2.15;;;1.80;;
40595;SDS011;26304;48.794;9.820;2022-07-26T03:56:32;2.60;;;1.67;;
40595;SDS011;26304;48.794;9.820;2022-07-26T04:02:15;1.88;;;1.77;;
40595;SDS011;26304;48.794;9.820;2022-07-26T04:07:58;2.30;;;1.67;;
40595;SDS011;26304;48.794;9.820;2022-07-26T04:13:41;1.73;;;1.63;;
40595;SDS011;26304;48.794;9.820;2022-07-26T04:19:24;2.55;;;1.90;;
40595;SDS011;26304;48.794;9.820;2022-07-26T04:25:07;2.28;;;1.70;;
40595;SDS011;26304;48.794;9.820;2022-07-26T04:30:52;2.55;;;1.90;;
40595;SDS011;26304;48.794;9.820;2022-07-26T04:36:34;4.40;;;2.00;;
40595;SDS011;26304;48.794;9.820;2022-07-26T04:42:17;2.42;;;1.60;;
40595;SDS011;26304;48.794;9.820;2022-07-26T04:48:00;2.25;;;1.75;;
40595;SDS011;26304;48.794;9.820;2022-07-26T04:53:43;2.00;;;1.60;;
40595;SDS011;26304;48.794;9.820;2022-07-26T04:59:25;1.90;;;1.70;;
40595;SDS011;26304;48.794;9.820;2022-07-26T05:05:09;2.58;;;1.92;;
40595;SDS011;26304;48.794;9.820;2022-07-26T05:10:52;2.33;;;1.73;;
40595;SDS011;26304;48.794;9.820;2022-07-26T05:16:34;2.83;;;1.55;;
40595;SDS011;26304;48.794;9.820;2022-07-26T05:22:18;2.22;;;1.98;;
40595;SDS011;26304;48.794;9.820;2022-07-26T05:28:00;3.78;;;2.03;;
40595;SDS011;26304;48.794;9.820;2022-07-26T05:33:43;1.90;;;1.80;;
40595;SDS011;26304;48.794;9.820;2022-07-26T05:39:26;1.88;;;1.77;;
40595;SDS011;26304;48.794;9.820;2022-07-26T05:45:09;2.90;;;2.10;;
40595;SDS011;26304;48.794;9.820;2022-07-26T05:50:52;3.05;;;2.20;;
40595;SDS011;26304;48.794;9.820;2022-07-26T05:56:36;2.33;;;2.13;;
40595;SDS011;26304;48.794;9.820;2022-07-26T06:02:18;4.13;;;2.08;;
40595;SDS011;26304;48.794;9.820;2022-07-26T06:08:01;2.72;;;1.98;;
40595;SDS011;26304;48.794;9.820;2022-07-26T06:13:44;1.75;;;1.50;;
40595;SDS011;26304;48.794;9.820;2022-07-26T06:19:27;1.60;;;1.50;;
40595;SDS011;26304;48.794;9.820;2022-07-26T06:25:10;1.55;;;1.45;;
40595;SDS011;26304;48.794;9.820;2022-07-26T06:30:54;3.72;;;1.40;;
40595;SDS011;26304;48.794;9.820;2022-07-26T06:36:36;2.75;;;1.60;;
40595;SDS011;26304;48.794;9.820;2022-07-26T06:42:19;2.03;;;1.50;;
40595;SDS011;26304;48.794;9.820;2022-07-26T06:48:03;2.67;;;2.47;;
40595;SDS011;26304;48.794;9.820;2022-07-26T06:53:45;2.33;;;1.55;;
40595;SDS011;26304;48.794;9.820;2022-07-26T06:59:27;2.53;;;1.85;;
40595;SDS011;26304;48.794;9.820;2022-07-26T07:05:11;2.10;;;1.90;;
40595;SDS011;26304;48.794;9.820;2022-07-26T07:10:54;2.70;;;2.25;;
40595;SDS011;26304;48.794;9.820;2022-07-26T07:16:36;2.83;;;2.00;;
40595;SDS011;26304;48.794;9.820;2022-07-26T07:22:20;2.35;;;1.60;;
40595;SDS011;26304;48.794;9.820;2022-07-26T07:28:03;2.22;;;1.98;;
40595;SDS011;26304;48.794;9.820;2022-07-26T07:33:45;2.17;;;1.45;;
40595;SDS011;26304;48.794;9.820;2022-07-26T07:39:29;2.25;;;1.65;;
40595;SDS011;26304;48.794;9.820;2022-07-26T07:45:12;1.85;;;1.60;;
40595;SDS011;26304;48.794;9.820;2022-07-26T07:50:54;3.28;;;2.08;;
40595;SDS011;26304;48.794;9.820;2022-07-26T07:56:38;3.78;;;1.88;;
40595;SDS011;26304;48.794;9.820;2022-07-26T08:02:21;1.67;;;1.58;;
40595;SDS011;26304;48.794;9.820;2022-07-26T08:08:03;2.33;;;1.58;;
40595;SDS011;26304;48.794;9.820;2022-07-26T08:13:48;2.67;;;1.60;;
40595;SDS011;26304;48.794;9.820;2022-07-26T08:19:30;1.75;;;1.65;;
40595;SDS011;26304;48.794;9.820;2022-07-26T08:25:13;1.98;;;1.60;;
40595;SDS011;26304;48.794;9.820;2022-07-26T08:30:56;3.10;;;1.70;;
40595;SDS011;26304;48.794;9.820;2022-07-26T08:36:39;2.55;;;1.60;;
40595;SDS011;26304;48.794;9.820;2022-07-26T08:42:21;2.15;;;1.60;;
40595;SDS011;26304;48.794;9.820;2022-07-26T08:48:05;1.80;;;1.70;;
40595;SDS011;26304;48.794;9.820;2022-07-26T08:53:48;1.98;;;1.58;;
40595;SDS011;26304;48.794;9.820;2022-07-26T08:59:32;2.08;;;1.60;;
40595;SDS011;26304;48.794;9.820;2022-07-26T09:05:16;2.90;;;1.50;;
40595;SDS011;26304;48.794;9.820;2022-07-26T09:11:00;1.92;;;1.50;;
40595;SDS011;26304;48.794;9.820;2022-07-26T09:16:46;1.52;;;1.40;;
40595;SDS011;26304;48.794;9.820;2022-07-26T09:22:54;1.70;;;1.60;;
40595;SDS011;26304;48.794;9.820;2022-07-26T09:28:38;2.17;;;1.65;;
40595;SDS011;26304;48.794;9.820;2022-07-26T09:34:23;1.60;;;1.50;;
40595;SDS011;26304;48.794;9.820;2022-07-26T09:40:08;2.35;;;1.90;;
40595;SDS011;26304;48.794;9.820;2022-07-26T09:46:02;1.45;;;1.35;;
40595;SDS011;26304;48.794;9.820;2022-07-26T09:51:46;1.50;;;1.40;;
40595;SDS011;26304;48.794;9.820;2022-07-26T09:57:31;1.80;;;1.67;;
40595;SDS011;26304;48.794;9.820;2022-07-26T10:03:15;2.08;;;1.48;;
40595;SDS011;26304;48.794;9.820;2022-07-26T10:08:58;1.55;;;1.45;;
40595;SDS011;26304;48.794;9.820;2022-07-26T10:14:43;1.40;;;1.30;;
40595;SDS011;26304;48.794;9.820;2022-07-26T10:20:37;1.50;;;1.40;;
40595;SDS011;26304;48.794;9.820;2022-07-26T10:26:39;1.40;;;1.30;;
40595;SDS011;26304;48.794;9.820;2022-07-26T10:32:26;1.42;;;1.33;;
40595;SDS011;26304;48.794;9.820;2022-07-26T10:38:13;1.35;;;1.35;;
40595;SDS011;26304;48.794;9.820;2022-07-26T10:44:18;1.63;;;1.52;;
40595;SDS011;26304;48.794;9.820;2022-07-26T10:50:03;1.85;;;1.75;;
40595;SDS011;26304;48.794;9.820;2022-07-26T10:55:48;1.40;;;1.30;;
40595;SDS011;26304;48.794;9.820;2022-07-26T11:01:32;1.55;;;1.45;;
40595;SDS011;26304;48.794;9.820;2022-07-26T11:07:17;1.33;;;1.23;;
40595;SDS011;26304;48.794;9.820;2022-07-26T11:13:06;1.40;;;1.30;;
40595;SDS011;26304;48.794;9.820;2022-07-26T11:18:50;1.00;;;1.00;;
40595;SDS011;26304;48.794;9.820;2022-07-26T11:24:35;1.20;;;1.20;;
40595;SDS011;26304;48.794;9.820;2022-07-26T11:30:21;1.15;;;1.05;;
40595;SDS011;26304;48.794;9.820;2022-07-26T11:36:03;1.75;;;1.30;;
40595;SDS011;26304;48.794;9.820;2022-07-26T11:41:48;1.83;;;1.63;;
40595;SDS011;26304;48.794;9.820;2022-07-26T11:47:32;4.30;;;1.83;;
40595;SDS011;26304;48.794;9.820;2022-07-26T11:53:21;3.72;;;1.90;;
40595;SDS011;26304;48.794;9.820;2022-07-26T11:59:05;2.35;;;1.75;;
40595;SDS011;26304;48.794;9.820;2022-07-26T12:04:48;3.22;;;1.90;;
40595;SDS011;26304;48.794;9.820;2022-07-26T12:10:30;3.17;;;1.98;;
40595;SDS011;26304;48.794;9.820;2022-07-26T12:16:16;4.22;;;2.00;;
40595;SDS011;26304;48.794;9.820;2022-07-26T12:22:22;4.88;;;1.98;;
40595;SDS011;26304;48.794;9.820;2022-07-26T12:28:05;1.58;;;1.40;;
40595;SDS011;26304;48.794;9.820;2022-07-26T12:33:48;1.77;;;1.50;;
40595;SDS011;26304;48.794;9.820;2022-07-26T12:39:31;2.72;;;1.58;;
40595;SDS011;26304;48.794;9.820;2022-07-26T12:45:13;1.40;;;1.30;;
40595;SDS011;26304;48.794;9.820;2022-07-26T12:50:58;2.05;;;1.35;;
40595;SDS011;26304;48.794;9.820;2022-07-26T12:56:41;1.55;;;1.45;;
40595;SDS011;26304;48.794;9.820;2022-07-26T13:02:23;2.35;;;1.58;;
40595;SDS011;26304;48.794;9.820;2022-07-26T13:08:07;1.50;;;1.38;;
40595;SDS011;26304;48.794;9.820;2022-07-26T13:13:51;1.40;;;1.30;;
40595;SDS011;26304;48.794;9.820;2022-07-26T13:19:34;1.92;;;1.25;;
40595;SDS011;26304;48.794;9.820;2022-07-26T13:25:19;1.40;;;1.17;;
40595;SDS011;26304;48.794;9.820;2022-07-26T13:31:01;2.08;;;1.10;;
40595;SDS011;26304;48.794;9.820;2022-07-26T13:36:43;0.98;;;0.90;;
40595;SDS011;26304;48.794;9.820;2022-07-26T13:42:28;2.55;;;0.90;;
40595;SDS011;26304;48.794;9.820;2022-07-26T13:48:10;2.40;;;1.00;;
40595;SDS011;26304;48.794;9.820;2022-07-26T13:53:53;0.88;;;0.75;;
40595;SDS011;26304;48.794;9.820;2022-07-26T13:59:37;0.88;;;0.88;;
40595;SDS011;26304;48.794;9.820;2022-07-26T14:05:19;2.05;;;0.90;;
40595;SDS011;26304;48.794;9.820;2022-07-26T14:11:03;0.90;;;0.80;;
40595;SDS011;26304;48.794;9.820;2022-07-26T14:16:47;1.13;;;0.90;;
40595;SDS011;26304;48.794;9.820;2022-07-26T14:22:29;1.13;;;0.90;;
40595;SDS011;26304;48.794;9.820;2022-07-26T14:28:12;1.48;;;0.85;;
40595;SDS011;26304;48.794;9.820;2022-07-26T14:33:55;1.73;;;0.90;;
40595;SDS011;26304;48.794;9.820;2022-07-26T14:39:38;1.10;;;1.00;;
40595;SDS011;26304;48.794;9.820;2022-07-26T14:45:21;1.08;;;0.70;;
40595;SDS011;26304;48.794;9.820;2022-07-26T14:51:04;1.00;;;0.90;;
40595;SDS011;26304;48.794;9.820;2022-07-26T14:56:47;0.70;;;0.70;;
40595;SDS011;26304;48.794;9.820;2022-07-26T15:02:29;1.10;;;0.70;;
40595;SDS011;26304;48.794;9.820;2022-07-26T15:08:13;2.17;;;0.80;;
40595;SDS011;26304;48.794;9.820;2022-07-26T15:13:56;0.98;;;0.88;;
40595;SDS011;26304;48.794;9.820;2022-07-26T15:19:38;1.55;;;0.90;;
40595;SDS011;26304;48.794;9.820;2022-07-26T15:25:22;1.60;;;0.98;;
40595;SDS011;26304;48.794;9.820;2022-07-26T15:31:05;0.70;;;0.70;;
40595;SDS011;26304;48.794;9.820;2022-07-26T15:36:47;1.90;;;1.00;;
40595;SDS011;26304;48.794;9.820;2022-07-26T15:42:32;0.85;;;0.82;;
40595;SDS011;26304;48.794;9.820;2022-07-26T15:48:14;1.70;;;1.15;;
40595;SDS011;26304;48.794;9.820;2022-07-26T15:53:57;1.23;;;0.80;;
40595;SDS011;26304;48.794;9.820;2022-07-26T15:59:41;2.65;;;0.90;;
40595;SDS011;26304;48.794;9.820;2022-07-26T16:05:23;1.10;;;0.90;;
40595;SDS011;26304;48.794;9.820;2022-07-26T16:11:05;2.10;;;0.77;;
40595;SDS011;26304;48.794;9.820;2022-07-26T16:16:49;4.25;;;0.88;;
40595;SDS011;26304;48.794;9.820;2022-07-26T16:22:32;1.10;;;1.00;;
40595;SDS011;26304;48.794;9.820;2022-07-26T16:28:15;1.95;;;1.00;;
40595;SDS011;26304;48.794;9.820;2022-07-26T16:33:59;0.80;;;0.80;;
40595;SDS011;26304;48.794;9.820;2022-07-26T16:39:41;1.48;;;0.70;;
40595;SDS011;26304;48.794;9.820;2022-07-26T16:45:24;0.90;;;0.90;;
40595;SDS011;26304;48.794;9.820;2022-07-26T16:51:08;0.80;;;0.75;;
40595;SDS011;26304;48.794;9.820;2022-07-26T16:56:51;0.90;;;0.90;;
40595;SDS011;26304;48.794;9.820;2022-07-26T17:02:34;1.88;;;0.90;;
40595;SDS011;26304;48.794;9.820;2022-07-26T17:08:18;1.20;;;1.05;;
40595;SDS011;26304;48.794;9.820;2022-07-26T17:14:01;1.10;;;1.00;;
40595;SDS011;26304;48.794;9.820;2022-07-26T17:19:43;1.77;;;1.10;;
40595;SDS011;26304;48.794;9.820;2022-07-26T17:25:27;2.47;;;1.00;;
40595;SDS011;26304;48.794;9.820;2022-07-26T17:31:10;1.10;;;0.77;;
40595;SDS011;26304;48.794;9.820;2022-07-26T17:36:55;0.70;;;0.70;;
40595;SDS011;26304;48.794;9.820;2022-07-26T17:42:40;0.70;;;0.70;;
40595;SDS011;26304;48.794;9.820;2022-07-26T17:48:22;2.20;;;1.00;;
40595;SDS011;26304;48.794;9.820;2022-07-26T17:54:05;1.98;;;1.08;;
40595;SDS011;26304;48.794;9.820;2022-07-26T17:59:49;1.13;;;1.00;;
40595;SDS011;26304;48.794;9.820;2022-07-26T18:05:32;0.88;;;0.80;;
40595;SDS011;26304;48.794;9.820;2022-07-26T18:11:14;1.10;;;0.88;;
40595;SDS011;26304;48.794;9.820;2022-07-26T18:16:58;15.88;;;4.93;;
40595;SDS011;26304;48.794;9.820;2022-07-26T18:22:40;5.15;;;2.30;;
40595;SDS011;26304;48.794;9.820;2022-07-26T18:28:23;3.42;;;1.58;;
40595;SDS011;26304;48.794;9.820;2022-07-26T18:34:06;1.80;;;1.10;;
40595;SDS011;26304;48.794;9.820;2022-07-26T18:39:49;1.33;;;0.90;;
40595;SDS011;26304;48.794;9.820;2022-07-26T18:45:31;1.50;;;0.80;;
40595;SDS011;26304;48.794;9.820;2022-07-26T18:51:15;2.78;;;1.13;;
40595;SDS011;26304;48.794;9.820;2022-07-26T18:56:57;1.15;;;1.05;;
40595;SDS011;26304;48.794;9.820;2022-07-26T19:02:40;1.50;;;1.00;;
40595;SDS011;26304;48.794;9.820;2022-07-26T19:08:24;1.33;;;1.10;;
40595;SDS011;26304;48.794;9.820;2022-07-26T19:14:07;1.00;;;0.93;;
40595;SDS011;26304;48.794;9.820;2022-07-26T19:19:49;2.58;;;1.05;;
40595;SDS011;26304;48.794;9.820;2022-07-26T19:25:33;1.40;;;1.30;;
40595;SDS011;26304;48.794;9.820;2022-07-26T19:31:15;1.60;;;1.20;;
40595;SDS011;26304;48.794;9.820;2022-07-26T19:36:58;2.65;;;1.40;;
40595;SDS011;26304;48.794;9.820;2022-07-26T19:42:41;1.45;;;1.10;;
40595;SDS011;26304;48.794;9.820;2022-07-26T19:48:24;2.70;;;1.45;;
40595;SDS011;26304;48.794;9.820;2022-07-26T19:54:07;1.77;;;1.23;;
40595;SDS011;26304;48.794;9.820;2022-07-26T19:59:51;1.17;;;1.10;;
40595;SDS011;26304;48.794;9.820;2022-07-26T20:05:34;1.35;;;1.00;;
40595;SDS011;26304;48.794;9.820;2022-07-26T20:11:17;1.25;;;1.20;;
40595;SDS011;26304;48.794;9.820;2022-07-26T20:17:03;1.52;;;1.25;;
40595;SDS011;26304;48.794;9.820;2022-07-26T20:22:46;1.45;;;1.23;;
40595;SDS011;26304;48.794;9.820;2022-07-26T20:28:29;1.70;;;1.20;;
40595;SDS011;26304;48.794;9.820;2022-07-26T20:34:13;4.00;;;1.20;;
40595;SDS011;26304;48.794;9.820;2022-07-26T20:39:55;1.20;;;1.10;;
40595;SDS011;26304;48.794;9.820;2022-07-26T20:45:38;1.20;;;1.10;;
40595;SDS011;26304;48.794;9.820;2022-07-26T20:51:22;1.45;;;1.38;;
40595;SDS011;26304;48.794;9.820;2022-07-26T20:57:05;1.75;;;1.63;;
40595;SDS011;26304;48.794;9.820;2022-07-26T21:02:48;4.20;;;1.65;;
40595;SDS011;26304;48.794;9.820;2022-07-26T21:08:34;1.85;;;1.50;;
40595;SDS011;26304;48.794;9.820;2022-07-26T21:14:17;2.05;;;1.50;;
40595;SDS011;26304;48.794;9.820;2022-07-26T21:19:59;2.28;;;1.50;;
40595;SDS011;26304;48.794;9.820;2022-07-26T21:25:44;2.70;;;2.00;;
40595;SDS011;26304;48.794;9.820;2022-07-26T21:31:26;2.53;;;1.65;;
40595;SDS011;26304;48.794;9.820;2022-07-26T21:37:08;4.70;;;2.00;;
40595;SDS011;26304;48.794;9.820;2022-07-26T21:42:52;2.10;;;1.90;;
40595;SDS011;26304;48.794;9.820;2022-07-26T21:48:35;2.40;;;2.20;;
40595;SDS011;26304;48.794;9.820;2022-07-26T21:54:17;1.90;;;1.80;;
40595;SDS011;26304;48.794;9.820;2022-07-26T22:00:01;2.53;;;1.88;;
40595;SDS011;26304;48.794;9.820;2022-07-26T22:05:44;1.88;;;1.73;;
40595;SDS011;26304;48.794;9.820;2022-07-26T22:11:27;3.20;;;2.40;;
40595;SDS011;26304;48.794;9.820;2022-07-26T22:17:11;2.40;;;2.20;;
40595;SDS011;26304;48.794;9.820;2022-07-26T22:22:53;2.30;;;2.03;;
40595;SDS011;26304;48.794;9.820;2022-07-26T22:28:35;2.47;;;2.28;;
40595;SDS011;26304;48.794;9.820;2022-07-26T22:34:20;2.67;;;2.40;;
40595;SDS011;26304;48.794;9.820;2022-07-26T22:40:02;2.28;;;2.15;;
40595;SDS011;26304;48.794;9.820;2022-07-26T22:45:46;2.80;;;2.13;;
40595;SDS011;26304;48.794;9.820;2022-07-26T22:51:29;2.10;;;1.98;;
40595;SDS011;26304;48.794;9.820;2022-07-26T22:57:12;1.90;;;1.70;;
40595;SDS011;26304;48.794;9.820;2022-07-26T23:02:54;2.45;;;1.88;;
40595;SDS011;26304;48.794;9.820;2022-07-26T23:08:38;2.90;;;1.92;;
40595;SDS011;26304;48.794;9.820;2022-07-26T23:14:21;2.38;;;2.17;;
40595;SDS011;26304;48.794;9.820;2022-07-26T23:20:03;2.50;;;2.30;;
40595;SDS011;26304;48.794;9.820;2022-07-26T23:25:48;2.42;;;2.22;;
40595;SDS011;26304;48.794;9.820;2022-07-26T23:31:31;1.88;;;1.77;;
40595;SDS011;26304;48.794;9.820;2022-07-26T23:37:13;2.88;;;2.00;;
40595;SDS011;26304;48.794;9.820;2022-07-26T23:42:57;3.25;;;2.20;;
40595;SDS011;26304;48.794;9.820;2022-07-26T23:48:39;2.00;;;1.88;;
40595;SDS011;26304;48.794;9.820;2022-07-26T23:54:22;3.60;;;1.90;;
